createdAt,value
2019-03-30T00:00:49.227Z,65.39
2019-03-30T00:02:53.530Z,65.26
2019-03-30T00:04:57.839Z,65.21
2019-03-30T00:07:02.169Z,65.28
2019-03-30T00:09:09.378Z,65.39
2019-03-30T00:11:14.702Z,65.56
2019-03-30T00:13:18.993Z,65.78
2019-03-30T00:15:24.304Z,65.98
2019-03-30T00:17:28.642Z,66.16
2019-03-30T00:19:35.123Z,66.22
2019-03-30T00:21:39.037Z,66.10
2019-03-30T00:23:43.345Z,66.12
2019-03-30T00:25:47.687Z,66.17
2019-03-30T00:27:51.989Z,66.07
2019-03-30T00:29:58.235Z,65.98
2019-03-30T00:32:02.555Z,65.98
2019-03-30T00:34:06.946Z,66.01
2019-03-30T00:36:11.282Z,66.16
2019-03-30T00:38:16.624Z,66.29
2019-03-30T00:40:20.929Z,66.45
2019-03-30T00:42:25.252Z,66.58
2019-03-30T00:44:29.562Z,66.63
2019-03-30T00:46:33.958Z,66.58
2019-03-30T00:48:38.301Z,66.55
2019-03-30T00:50:42.615Z,66.86
2019-03-30T00:52:47.164Z,67.11
2019-03-30T00:54:51.549Z,67.30
2019-03-30T00:56:55.867Z,67.55
2019-03-30T00:59:00.169Z,67.97
2019-03-30T01:01:04.664Z,68.36
2019-03-30T01:03:09.026Z,68.49
2019-03-30T01:05:13.476Z,68.47
2019-03-30T01:07:17.908Z,68.47
2019-03-30T01:09:22.231Z,68.62
2019-03-30T01:11:26.568Z,68.75
2019-03-30T01:13:30.898Z,68.71
2019-03-30T01:15:36.311Z,68.73
2019-03-30T01:17:40.673Z,68.74
2019-03-30T01:19:44.970Z,68.68
2019-03-30T01:21:49.790Z,68.61
2019-03-30T01:23:54.011Z,68.55
2019-03-30T01:25:58.320Z,68.65
2019-03-30T01:28:03.666Z,68.90
2019-03-30T01:30:22.470Z,69.05
2019-03-30T01:32:17.079Z,68.96
2019-03-30T01:34:21.579Z,68.87
2019-03-30T01:36:26.861Z,68.73
2019-03-30T01:38:31.275Z,68.60
2019-03-30T01:40:35.663Z,68.49
2019-03-30T01:42:40.927Z,68.41
2019-03-30T01:44:46.270Z,68.36
2019-03-30T01:46:50.576Z,68.43
2019-03-30T01:48:54.907Z,68.45
2019-03-30T01:51:00.237Z,68.50
2019-03-30T01:53:04.578Z,68.62
2019-03-30T01:55:09.228Z,68.82
2019-03-30T01:57:14.504Z,69.08
2019-03-30T01:59:18.836Z,69.28
2019-03-30T02:01:24.166Z,69.24
2019-03-30T02:03:28.482Z,69.17
2019-03-30T02:05:32.790Z,69.14
2019-03-30T02:07:38.124Z,69.12
2019-03-30T02:09:42.450Z,69.13
2019-03-30T02:11:46.840Z,69.07
2019-03-30T02:13:51.175Z,69.14
2019-03-30T02:15:56.483Z,69.20
2019-03-30T02:18:00.721Z,69.29
2019-03-30T02:20:05.361Z,69.42
2019-03-30T02:22:09.663Z,69.53
2019-03-30T02:24:13.986Z,69.66
2019-03-30T02:26:18.375Z,69.67
2019-03-30T02:28:22.710Z,69.69
2019-03-30T02:30:27.107Z,69.73
2019-03-30T02:32:31.446Z,69.80
2019-03-30T02:34:35.769Z,69.85
2019-03-30T02:36:40.087Z,69.98
2019-03-30T02:38:44.398Z,70.14
2019-03-30T02:40:48.712Z,70.25
2019-03-30T02:42:54.962Z,70.41
2019-03-30T02:44:59.294Z,70.56
2019-03-30T02:47:04.528Z,70.68
2019-03-30T02:49:08.839Z,70.64
2019-03-30T02:51:13.230Z,70.65
2019-03-30T02:53:17.580Z,70.75
2019-03-30T02:55:21.894Z,70.84
2019-03-30T02:57:27.214Z,70.80
2019-03-30T02:59:31.461Z,70.93
2019-03-30T03:01:35.884Z,70.96
2019-03-30T03:03:40.129Z,71.01
2019-03-30T03:05:44.552Z,71.01
2019-03-30T03:07:48.843Z,70.97
2019-03-30T03:09:53.091Z,71.04
2019-03-30T03:11:57.369Z,71.01
2019-03-30T03:14:01.578Z,71.13
2019-03-30T03:16:05.984Z,71.24
2019-03-30T03:18:10.221Z,71.27
2019-03-30T03:20:14.896Z,71.23
2019-03-30T03:22:19.124Z,71.19
2019-03-30T03:24:23.366Z,71.13
2019-03-30T03:26:27.693Z,71.07
2019-03-30T03:28:31.927Z,71.04
2019-03-30T03:30:36.253Z,71.09
2019-03-30T03:32:40.512Z,71.14
2019-03-30T03:34:44.767Z,71.24
2019-03-30T03:36:49.008Z,71.28
2019-03-30T03:38:53.247Z,71.34
2019-03-30T03:40:57.864Z,71.37
2019-03-30T03:43:02.189Z,71.40
2019-03-30T03:45:07.314Z,71.41
2019-03-30T03:47:11.564Z,71.33
2019-03-30T03:49:15.799Z,71.59
2019-03-30T03:51:26.240Z,71.73
2019-03-30T03:53:27.694Z,71.79
2019-03-30T03:55:32.401Z,71.80
2019-03-30T03:57:40.866Z,71.75
2019-03-30T03:59:47.197Z,71.76
2019-03-30T04:01:54.816Z,71.87
2019-03-30T04:04:02.337Z,71.98
2019-03-30T04:06:07.150Z,71.96
2019-03-30T04:08:13.281Z,72.02
2019-03-30T04:10:17.622Z,72.07
2019-03-30T04:12:23.761Z,72.15
2019-03-30T04:14:28.154Z,72.36
2019-03-30T04:16:32.550Z,72.52
2019-03-30T04:18:36.922Z,72.61
2019-03-30T04:20:41.187Z,72.66
2019-03-30T04:22:45.419Z,72.71
2019-03-30T04:24:49.733Z,72.77
2019-03-30T04:26:53.977Z,72.83
2019-03-30T04:28:58.203Z,72.84
2019-03-30T04:31:02.465Z,72.89
2019-03-30T04:33:06.708Z,72.96
2019-03-30T04:35:11.029Z,73.00
2019-03-30T04:37:15.285Z,73.01
2019-03-30T04:39:19.520Z,73.01
2019-03-30T04:41:23.808Z,73.04
2019-03-30T04:43:28.045Z,73.05
2019-03-30T04:45:32.370Z,73.07
2019-03-30T04:47:36.647Z,73.10
2019-03-30T04:49:40.892Z,73.09
2019-03-30T04:51:56.946Z,73.21
2019-03-30T04:53:51.081Z,73.30
2019-03-30T04:55:55.309Z,73.38
2019-03-30T04:57:59.549Z,73.47
2019-03-30T05:00:04.066Z,73.51
2019-03-30T05:02:08.326Z,73.58
2019-03-30T05:04:12.561Z,73.66
2019-03-30T05:06:16.829Z,73.80
2019-03-30T05:08:21.189Z,73.81
2019-03-30T05:10:25.493Z,73.87
2019-03-30T05:12:29.741Z,73.98
2019-03-30T05:14:33.983Z,74.09
2019-03-30T05:16:38.231Z,74.13
2019-03-30T05:18:42.466Z,74.26
2019-03-30T05:20:46.795Z,74.36
2019-03-30T05:22:51.482Z,74.40
2019-03-30T05:24:55.869Z,74.42
2019-03-30T05:27:00.176Z,74.41
2019-03-30T05:29:04.449Z,74.27
2019-03-30T05:31:08.709Z,74.12
2019-03-30T05:33:12.966Z,74.14
2019-03-30T05:35:17.358Z,74.11
2019-03-30T05:37:21.623Z,74.04
2019-03-30T05:39:25.857Z,74.00
2019-03-30T05:41:30.106Z,73.99
2019-03-30T05:43:34.344Z,74.04
2019-03-30T05:45:38.605Z,74.11
2019-03-30T05:47:43.890Z,74.20
2019-03-30T05:49:48.133Z,74.37
2019-03-30T05:51:52.383Z,74.34
2019-03-30T05:53:56.624Z,74.32
2019-03-30T05:56:00.952Z,74.35
2019-03-30T05:58:05.188Z,74.45
2019-03-30T06:00:15.372Z,74.40
2019-03-30T06:02:19.626Z,74.29
2019-03-30T06:04:23.888Z,74.20
2019-03-30T06:06:28.131Z,74.17
2019-03-30T06:08:32.380Z,74.20
2019-03-30T06:10:38.731Z,74.17
2019-03-30T06:12:42.698Z,74.13
2019-03-30T06:14:47.967Z,73.95
2019-03-30T06:16:52.329Z,74.00
2019-03-30T06:18:56.571Z,74.04
2019-03-30T06:21:00.815Z,73.96
2019-03-30T06:23:05.076Z,73.83
2019-03-30T06:25:09.499Z,73.76
2019-03-30T06:27:13.755Z,73.66
2019-03-30T06:29:17.996Z,73.60
2019-03-30T06:31:22.248Z,73.57
2019-03-30T06:33:26.498Z,73.07
2019-03-30T06:35:30.732Z,70.35
2019-03-30T06:37:34.999Z,65.42
2019-03-30T06:39:39.250Z,60.21
2019-03-30T06:41:43.501Z,55.36
2019-03-30T06:43:47.768Z,51.08
2019-03-30T06:45:52.044Z,47.31
2019-03-30T06:47:56.467Z,44.54
2019-03-30T06:50:00.832Z,41.61
2019-03-30T06:52:05.142Z,40.04
2019-03-30T06:54:09.551Z,38.34
2019-03-30T06:56:13.811Z,36.44
2019-03-30T06:58:18.082Z,34.98
2019-03-30T07:00:32.103Z,33.81
2019-03-30T07:02:37.344Z,32.80
2019-03-30T07:04:41.666Z,32.05
2019-03-30T07:06:46.866Z,31.44
2019-03-30T07:08:53.323Z,30.46
2019-03-30T07:10:59.029Z,29.40
2019-03-30T07:13:04.156Z,28.40
2019-03-30T07:15:08.775Z,27.65
2019-03-30T07:17:13.691Z,26.91
2019-03-30T07:19:20.707Z,26.67
2019-03-30T07:21:24.957Z,26.16
2019-03-30T07:23:29.215Z,26.45
2019-03-30T07:25:33.862Z,25.37
2019-03-30T07:27:38.118Z,24.77
2019-03-30T07:29:42.351Z,24.15
2019-03-30T07:31:46.610Z,23.74
2019-03-30T07:33:50.862Z,23.46
2019-03-30T07:35:55.110Z,23.46
2019-03-30T07:37:59.468Z,22.62
2019-03-30T07:40:04.148Z,21.79
2019-03-30T07:42:08.370Z,21.46
2019-03-30T07:44:12.787Z,21.07
2019-03-30T07:46:19.644Z,20.92
2019-03-30T07:48:24.147Z,20.96
2019-03-30T07:50:28.400Z,20.74
2019-03-30T07:52:32.695Z,20.75
2019-03-30T07:54:37.051Z,20.44
2019-03-30T07:56:41.478Z,20.43
2019-03-30T07:58:45.739Z,20.07
2019-03-30T08:00:50.057Z,19.82
2019-03-30T08:02:54.322Z,20.02
2019-03-30T08:04:58.671Z,20.93
2019-03-30T08:07:03.002Z,21.74
2019-03-30T08:09:07.783Z,22.01
2019-03-30T08:11:14.380Z,22.06
2019-03-30T08:13:18.162Z,21.14
2019-03-30T08:15:22.497Z,20.73
2019-03-30T08:17:26.740Z,20.58
2019-03-30T08:19:31.015Z,20.85
2019-03-30T08:21:35.268Z,20.90
2019-03-30T08:23:40.813Z,21.53
2019-03-30T08:25:45.198Z,21.83
2019-03-30T08:27:49.468Z,22.07
2019-03-30T08:29:53.715Z,22.03
2019-03-30T08:31:58.137Z,22.23
2019-03-30T08:34:02.399Z,22.17
2019-03-30T08:36:06.732Z,21.70
2019-03-30T08:38:11.097Z,21.04
2019-03-30T08:40:15.626Z,20.81
2019-03-30T08:42:20.433Z,20.90
2019-03-30T08:44:24.707Z,19.99
2019-03-30T08:46:28.962Z,19.29
2019-03-30T08:48:33.233Z,19.33
2019-03-30T08:50:37.546Z,19.27
2019-03-30T08:52:41.803Z,19.05
2019-03-30T08:54:46.145Z,18.36
2019-03-30T08:56:50.420Z,18.03
2019-03-30T08:58:54.674Z,17.94
2019-03-30T09:00:58.944Z,18.04
2019-03-30T09:03:03.197Z,17.97
2019-03-30T09:05:08.731Z,18.47
2019-03-30T09:07:12.991Z,18.48
2019-03-30T09:09:17.334Z,18.27
2019-03-30T09:11:21.586Z,18.19
2019-03-30T09:13:25.874Z,17.67
2019-03-30T09:15:30.128Z,17.89
2019-03-30T09:17:37.167Z,17.76
2019-03-30T09:19:40.391Z,17.93
2019-03-30T09:21:44.731Z,18.61
2019-03-30T09:23:49.002Z,18.37
2019-03-30T09:25:53.259Z,19.20
2019-03-30T09:27:57.525Z,19.82
2019-03-30T09:30:01.931Z,20.04
2019-03-30T09:32:14.167Z,20.06
2019-03-30T09:34:12.213Z,19.65
2019-03-30T09:36:16.470Z,20.34
2019-03-30T09:38:20.728Z,20.38
2019-03-30T09:40:25.016Z,20.11
2019-03-30T09:42:29.263Z,19.67
2019-03-30T09:44:33.529Z,19.61
2019-03-30T09:46:37.767Z,19.61
2019-03-30T09:48:42.021Z,19.42
2019-03-30T09:50:46.323Z,18.77
2019-03-30T09:52:50.574Z,17.95
2019-03-30T09:54:54.834Z,17.53
2019-03-30T09:56:59.074Z,17.60
2019-03-30T09:59:03.338Z,17.62
2019-03-30T10:01:07.587Z,17.33
2019-03-30T10:03:11.833Z,17.07
2019-03-30T10:05:16.168Z,16.89
2019-03-30T10:07:20.500Z,16.74
2019-03-30T10:09:24.760Z,16.37
2019-03-30T10:11:29.032Z,16.12
2019-03-30T10:13:33.276Z,15.89
2019-03-30T10:15:37.557Z,16.09
2019-03-30T10:17:41.814Z,15.93
2019-03-30T10:19:53.033Z,15.68
2019-03-30T10:21:52.138Z,15.56
2019-03-30T10:23:56.453Z,15.61
2019-03-30T10:26:00.727Z,15.72
2019-03-30T10:28:04.976Z,15.99
2019-03-30T10:30:10.008Z,16.09
2019-03-30T10:32:14.263Z,16.32
2019-03-30T10:34:18.522Z,16.41
2019-03-30T10:36:22.783Z,15.49
2019-03-30T10:38:27.034Z,15.08
2019-03-30T10:40:31.386Z,15.06
2019-03-30T10:42:35.659Z,15.12
2019-03-30T10:44:39.933Z,14.86
2019-03-30T10:46:44.183Z,14.94
2019-03-30T10:48:48.441Z,14.64
2019-03-30T10:50:52.746Z,14.36
2019-03-30T10:52:57.001Z,14.24
2019-03-30T10:55:01.275Z,14.39
2019-03-30T10:57:05.694Z,13.56
2019-03-30T10:59:09.947Z,13.79
2019-03-30T11:01:14.286Z,14.20
2019-03-30T11:03:18.549Z,14.51
2019-03-30T11:05:22.893Z,14.52
2019-03-30T11:07:27.142Z,14.68
2019-03-30T11:09:31.414Z,14.75
2019-03-30T11:11:35.663Z,14.44
2019-03-30T11:13:39.907Z,14.38
2019-03-30T11:15:44.252Z,14.33
2019-03-30T11:17:48.498Z,13.95
2019-03-30T11:19:52.758Z,13.54
2019-03-30T11:21:56.997Z,12.82
2019-03-30T11:24:01.251Z,12.83
2019-03-30T11:26:05.693Z,12.54
2019-03-30T11:28:10.023Z,12.31
2019-03-30T11:30:14.566Z,11.92
2019-03-30T11:32:18.827Z,12.27
2019-03-30T11:34:23.078Z,12.21
2019-03-30T11:36:27.341Z,12.35
2019-03-30T11:38:31.587Z,12.46
2019-03-30T11:40:36.010Z,12.56
2019-03-30T11:42:40.281Z,12.33
2019-03-30T11:44:44.542Z,12.19
2019-03-30T11:46:48.871Z,12.10
2019-03-30T11:48:53.120Z,12.25
2019-03-30T11:50:57.393Z,12.18
2019-03-30T11:53:01.653Z,11.99
2019-03-30T11:55:20.678Z,11.82
2019-03-30T11:57:12.367Z,11.75
2019-03-30T11:59:16.627Z,11.70
2019-03-30T12:01:21.929Z,11.87
2019-03-30T12:03:26.236Z,11.86
2019-03-30T12:05:30.680Z,11.78
2019-03-30T12:07:34.941Z,11.59
2019-03-30T12:09:39.182Z,11.12
2019-03-30T12:11:43.440Z,10.74
2019-03-30T12:13:47.704Z,10.53
2019-03-30T12:15:52.067Z,10.94
2019-03-30T12:17:56.456Z,11.27
2019-03-30T12:20:00.787Z,11.22
2019-03-30T12:22:05.105Z,10.94
2019-03-30T12:24:09.436Z,10.71
2019-03-30T12:26:13.829Z,10.51
2019-03-30T12:28:18.146Z,10.97
2019-03-30T12:30:22.555Z,11.63
2019-03-30T12:32:26.880Z,11.72
2019-03-30T12:34:31.204Z,11.81
2019-03-30T12:36:35.507Z,11.52
2019-03-30T12:38:39.895Z,11.64
2019-03-30T12:40:45.191Z,11.28
2019-03-30T12:42:49.551Z,10.75
2019-03-30T12:44:53.893Z,10.42
2019-03-30T12:46:58.227Z,10.09
2019-03-30T12:49:03.640Z,10.18
2019-03-30T12:51:08.059Z,10.13
2019-03-30T12:53:12.409Z,9.79
2019-03-30T12:55:16.704Z,9.90
2019-03-30T12:57:21.001Z,9.80
2019-03-30T12:59:25.308Z,9.65
2019-03-30T13:01:31.608Z,9.27
2019-03-30T13:03:35.889Z,9.25
2019-03-30T13:05:40.149Z,9.34
2019-03-30T13:07:44.605Z,9.53
2019-03-30T13:09:48.935Z,9.52
2019-03-30T13:11:53.282Z,9.44
2019-03-30T13:13:57.637Z,9.53
2019-03-30T13:16:01.911Z,9.58
2019-03-30T13:18:07.243Z,9.74
2019-03-30T13:20:11.631Z,9.96
2019-03-30T13:22:15.975Z,10.43
2019-03-30T13:24:20.278Z,10.59
2019-03-30T13:26:24.608Z,10.42
2019-03-30T13:28:28.986Z,10.74
2019-03-30T13:30:33.344Z,10.85
2019-03-30T13:32:37.649Z,11.46
2019-03-30T13:34:41.963Z,11.90
2019-03-30T13:36:46.282Z,12.38
2019-03-30T13:38:50.587Z,12.99
2019-03-30T13:40:54.916Z,13.70
2019-03-30T13:42:59.295Z,13.99
2019-03-30T13:45:04.158Z,14.18
2019-03-30T13:47:08.546Z,14.71
2019-03-30T13:49:12.962Z,15.01
2019-03-30T13:51:17.311Z,15.34
2019-03-30T13:53:21.768Z,15.91
2019-03-30T13:55:26.033Z,16.00
2019-03-30T13:57:30.348Z,16.01
2019-03-30T13:59:34.681Z,16.27
2019-03-30T14:01:39.000Z,16.48
2019-03-30T14:03:43.301Z,16.54
2019-03-30T14:05:47.644Z,16.69
2019-03-30T14:07:51.935Z,16.84
2019-03-30T14:09:56.245Z,16.87
2019-03-30T14:12:00.587Z,16.89
2019-03-30T14:14:04.947Z,17.28
2019-03-30T14:16:09.294Z,17.48
2019-03-30T14:18:13.614Z,17.36
2019-03-30T14:20:17.920Z,17.50
2019-03-30T14:22:22.245Z,17.38
2019-03-30T14:24:26.549Z,17.59
2019-03-30T14:26:31.882Z,17.38
2019-03-30T14:28:36.311Z,17.50
2019-03-30T14:30:40.632Z,17.59
2019-03-30T14:32:44.946Z,17.84
2019-03-30T14:34:49.249Z,17.89
2019-03-30T14:36:53.587Z,18.29
2019-03-30T14:38:57.879Z,18.27
2019-03-30T14:41:03.777Z,18.07
2019-03-30T14:43:08.427Z,18.19
2019-03-30T14:45:12.943Z,18.35
2019-03-30T14:47:19.277Z,18.48
2019-03-30T14:49:23.555Z,18.93
2019-03-30T14:51:27.878Z,19.27
2019-03-30T14:53:32.186Z,19.41
2019-03-30T14:55:39.438Z,19.35
2019-03-30T14:57:42.663Z,19.56
2019-03-30T14:59:47.995Z,19.63
2019-03-30T15:01:52.316Z,19.52
2019-03-30T15:03:57.800Z,19.38
2019-03-30T15:06:03.089Z,19.41
2019-03-30T15:08:07.409Z,19.41
2019-03-30T15:10:12.397Z,19.55
2019-03-30T15:12:16.759Z,19.58
2019-03-30T15:14:21.057Z,19.59
2019-03-30T15:16:25.377Z,19.58
2019-03-30T15:18:29.691Z,19.63
2019-03-30T15:20:34.075Z,19.55
2019-03-30T15:22:38.434Z,19.30
2019-03-30T15:24:42.887Z,19.44
2019-03-30T15:26:59.195Z,19.86
2019-03-30T15:28:53.316Z,20.23
2019-03-30T15:30:57.631Z,20.37
2019-03-30T15:33:03.563Z,20.11
2019-03-30T15:35:09.487Z,20.19
2019-03-30T15:37:14.780Z,20.20
2019-03-30T15:39:19.158Z,20.19
2019-03-30T15:41:23.604Z,20.38
2019-03-30T15:43:38.045Z,20.60
2019-03-30T15:45:33.994Z,20.69
2019-03-30T15:47:38.383Z,20.75
2019-03-30T15:49:42.781Z,20.54
2019-03-30T15:51:47.227Z,20.39
2019-03-30T15:53:52.567Z,20.47
2019-03-30T15:55:56.960Z,20.55
2019-03-30T15:58:01.317Z,20.69
2019-03-30T16:00:07.556Z,20.86
2019-03-30T16:02:12.033Z,21.06
2019-03-30T16:04:16.474Z,21.29
2019-03-30T16:06:20.815Z,21.04
2019-03-30T16:08:25.082Z,21.04
2019-03-30T16:10:29.441Z,21.48
2019-03-30T16:12:33.790Z,21.84
2019-03-30T16:14:38.074Z,21.91
2019-03-30T16:16:42.406Z,22.14
2019-03-30T16:18:46.697Z,22.35
2019-03-30T16:20:52.245Z,22.47
2019-03-30T16:22:56.650Z,22.48
2019-03-30T16:25:01.048Z,22.49
2019-03-30T16:27:05.674Z,22.38
2019-03-30T16:29:10.097Z,22.31
2019-03-30T16:31:14.442Z,21.94
2019-03-30T16:33:18.767Z,21.94
2019-03-30T16:35:23.081Z,21.77
2019-03-30T16:37:27.404Z,21.79
2019-03-30T16:39:34.683Z,21.76
2019-03-30T16:41:37.775Z,21.81
2019-03-30T16:43:42.101Z,22.06
2019-03-30T16:45:47.401Z,22.49
2019-03-30T16:47:51.789Z,22.72
2019-03-30T16:49:56.133Z,22.89
2019-03-30T16:52:00.462Z,22.79
2019-03-30T16:54:06.075Z,22.72
2019-03-30T16:56:10.415Z,22.67
2019-03-30T16:58:14.733Z,22.85
2019-03-30T17:00:19.702Z,22.85
2019-03-30T17:02:23.984Z,22.73
2019-03-30T17:04:29.725Z,22.74
2019-03-30T17:06:35.165Z,22.71
2019-03-30T17:08:39.508Z,23.06
2019-03-30T17:10:43.799Z,23.43
2019-03-30T17:12:48.114Z,23.85
2019-03-30T17:14:52.431Z,24.40
2019-03-30T17:16:56.741Z,24.90
2019-03-30T17:19:01.059Z,25.12
2019-03-30T17:21:05.444Z,25.19
2019-03-30T17:23:09.873Z,25.22
2019-03-30T17:25:14.204Z,25.35
2019-03-30T17:27:18.512Z,25.79
2019-03-30T17:29:22.910Z,26.36
2019-03-30T17:31:27.248Z,27.06
2019-03-30T17:33:32.599Z,27.50
2019-03-30T17:35:37.926Z,27.59
2019-03-30T17:37:42.423Z,27.78
2019-03-30T17:39:46.759Z,27.83
2019-03-30T17:41:52.179Z,27.93
2019-03-30T17:43:57.517Z,28.31
2019-03-30T17:46:02.293Z,28.69
2019-03-30T17:48:06.664Z,29.00
2019-03-30T17:50:11.351Z,29.59
2019-03-30T17:52:15.719Z,30.43
2019-03-30T17:54:21.076Z,31.06
2019-03-30T17:56:26.384Z,31.06
2019-03-30T17:58:31.754Z,31.25
2019-03-30T18:00:36.246Z,31.58
2019-03-30T18:02:40.580Z,31.83
2019-03-30T18:04:45.001Z,32.02
2019-03-30T18:06:49.320Z,32.74
2019-03-30T18:08:53.660Z,33.39
2019-03-30T18:10:58.961Z,33.74
2019-03-30T18:13:03.376Z,34.04
2019-03-30T18:15:10.112Z,34.17
2019-03-30T18:17:14.531Z,34.33
2019-03-30T18:19:18.881Z,34.63
2019-03-30T18:21:24.232Z,34.50
2019-03-30T18:23:28.541Z,34.50
2019-03-30T18:25:32.844Z,34.76
2019-03-30T18:27:37.167Z,35.04
2019-03-30T18:29:41.671Z,35.41
2019-03-30T18:31:46.274Z,35.97
2019-03-30T18:33:51.189Z,35.92
2019-03-30T18:35:55.799Z,35.76
2019-03-30T18:38:00.952Z,35.68
2019-03-30T18:40:06.505Z,36.08
2019-03-30T18:42:10.927Z,36.42
2019-03-30T18:44:17.285Z,36.54
2019-03-30T18:46:21.714Z,36.92
2019-03-30T18:48:26.048Z,37.04
2019-03-30T18:50:30.641Z,36.99
2019-03-30T18:52:35.629Z,37.16
2019-03-30T18:54:41.997Z,37.54
2019-03-30T18:56:46.266Z,37.68
2019-03-30T18:58:50.598Z,37.78
2019-03-30T19:00:55.912Z,37.95
2019-03-30T19:03:00.239Z,38.08
2019-03-30T19:05:04.856Z,38.33
2019-03-30T19:07:09.189Z,38.53
2019-03-30T19:09:14.530Z,38.85
2019-03-30T19:11:18.833Z,39.07
2019-03-30T19:13:24.184Z,39.30
2019-03-30T19:15:29.512Z,39.55
2019-03-30T19:17:34.859Z,39.76
2019-03-30T19:19:39.169Z,40.20
2019-03-30T19:21:44.506Z,40.91
2019-03-30T19:23:48.820Z,41.32
2019-03-30T19:25:53.143Z,41.39
2019-03-30T19:27:57.605Z,41.33
2019-03-30T19:30:01.897Z,41.61
2019-03-30T19:32:06.177Z,42.20
2019-03-30T19:34:12.449Z,42.53
2019-03-30T19:36:16.855Z,42.92
2019-03-30T19:38:21.178Z,43.13
2019-03-30T19:40:26.522Z,43.34
2019-03-30T19:42:31.924Z,43.50
2019-03-30T19:44:36.283Z,43.62
2019-03-30T19:46:40.576Z,43.50
2019-03-30T19:48:44.818Z,43.63
2019-03-30T19:50:49.129Z,44.21
2019-03-30T19:52:53.429Z,44.16
2019-03-30T19:54:57.753Z,44.38
2019-03-30T19:57:02.063Z,44.81
2019-03-30T19:59:10.914Z,45.01
2019-03-30T20:01:12.593Z,45.23
2019-03-30T20:03:16.851Z,45.21
2019-03-30T20:05:22.379Z,44.82
2019-03-30T20:07:26.722Z,44.87
2019-03-30T20:09:32.046Z,45.48
2019-03-30T20:11:36.370Z,45.60
2019-03-30T20:13:40.664Z,46.00
2019-03-30T20:15:44.991Z,46.56
2019-03-30T20:17:49.306Z,46.54
2019-03-30T20:19:53.701Z,46.68
2019-03-30T20:21:58.028Z,47.04
2019-03-30T20:24:02.354Z,46.92
2019-03-30T20:26:06.667Z,47.23
2019-03-30T20:28:10.980Z,47.50
2019-03-30T20:30:16.441Z,47.62
2019-03-30T20:32:20.742Z,47.85
2019-03-30T20:34:25.071Z,48.06
2019-03-30T20:36:31.325Z,48.35
2019-03-30T20:38:35.630Z,48.91
2019-03-30T20:40:39.955Z,48.94
2019-03-30T20:42:45.296Z,48.99
2019-03-30T20:44:49.600Z,49.37
2019-03-30T20:46:53.922Z,49.76
2019-03-30T20:48:58.233Z,50.14
2019-03-30T20:51:02.549Z,50.24
2019-03-30T20:53:06.959Z,50.12
2019-03-30T20:55:11.547Z,50.14
2019-03-30T20:57:16.821Z,50.30
2019-03-30T20:59:22.156Z,50.30
2019-03-30T21:01:26.493Z,50.37
2019-03-30T21:03:30.796Z,50.72
2019-03-30T21:05:35.110Z,50.86
2019-03-30T21:07:41.710Z,50.75
2019-03-30T21:09:46.500Z,50.56
2019-03-30T21:11:50.761Z,50.70
2019-03-30T21:13:56.771Z,51.13
2019-03-30T21:16:01.086Z,51.19
2019-03-30T21:18:05.467Z,51.17
2019-03-30T21:20:10.173Z,51.47
2019-03-30T21:22:15.472Z,51.74
2019-03-30T21:24:19.772Z,51.53
2019-03-30T21:26:24.094Z,51.46
2019-03-30T21:28:28.487Z,51.87
2019-03-30T21:30:32.827Z,52.23
2019-03-30T21:32:37.139Z,52.27
2019-03-30T21:34:41.399Z,52.28
2019-03-30T21:36:45.651Z,52.28
2019-03-30T21:38:49.973Z,52.48
2019-03-30T21:40:54.214Z,52.54
2019-03-30T21:42:58.619Z,52.70
2019-03-30T21:45:03.015Z,52.85
2019-03-30T21:47:07.434Z,53.25
2019-03-30T21:49:11.761Z,53.56
2019-03-30T21:51:16.076Z,53.74
2019-03-30T21:53:20.387Z,53.86
2019-03-30T21:55:25.726Z,54.13
2019-03-30T21:57:30.055Z,54.26
2019-03-30T21:59:35.378Z,54.42
2019-03-30T22:01:39.707Z,54.59
2019-03-30T22:03:45.030Z,54.90
2019-03-30T22:05:49.339Z,55.06
2019-03-30T22:07:53.737Z,55.27
2019-03-30T22:09:58.429Z,55.46
2019-03-30T22:12:02.685Z,55.91
2019-03-30T22:14:07.021Z,56.24
2019-03-30T22:16:11.334Z,56.41
2019-03-30T22:18:16.675Z,56.48
2019-03-30T22:20:21.430Z,56.37
2019-03-30T22:22:26.742Z,56.65
2019-03-30T22:24:33.036Z,56.67
2019-03-30T22:26:37.369Z,56.57
2019-03-30T22:28:41.613Z,56.40
2019-03-30T22:30:46.059Z,56.49
2019-03-30T22:32:50.363Z,56.76
2019-03-30T22:34:54.747Z,56.96
2019-03-30T22:37:00.017Z,57.24
2019-03-30T22:39:05.521Z,57.29
2019-03-30T22:41:09.961Z,57.15
2019-03-30T22:43:15.209Z,57.24
2019-03-30T22:45:19.522Z,57.28
2019-03-30T22:47:23.847Z,57.05
2019-03-30T22:49:28.170Z,56.83
2019-03-30T22:51:32.559Z,56.74
2019-03-30T22:53:36.904Z,56.72
2019-03-30T22:55:42.233Z,56.83
2019-03-30T22:57:46.554Z,57.04
2019-03-30T22:59:50.863Z,56.92
2019-03-30T23:01:56.198Z,56.83
2019-03-30T23:04:01.542Z,56.73
2019-03-30T23:06:05.928Z,56.66
2019-03-30T23:08:10.477Z,56.65
2019-03-30T23:10:14.794Z,56.77
2019-03-30T23:12:19.037Z,56.80
2019-03-30T23:14:23.382Z,56.73
2019-03-30T23:16:27.728Z,56.78
2019-03-30T23:18:32.056Z,56.88
2019-03-30T23:20:38.303Z,56.95
2019-03-30T23:22:42.635Z,57.05
2019-03-30T23:24:46.933Z,57.28
2019-03-30T23:26:51.252Z,57.25
2019-03-30T23:28:55.578Z,57.31
2019-03-30T23:31:01.635Z,57.39
2019-03-30T23:33:05.944Z,57.38
2019-03-30T23:35:12.275Z,57.39
2019-03-30T23:37:16.616Z,57.36
2019-03-30T23:39:21.008Z,57.56
2019-03-30T23:41:25.343Z,57.56
2019-03-30T23:43:29.670Z,57.47
2019-03-30T23:45:34.049Z,57.57
2019-03-30T23:47:38.477Z,57.68
2019-03-30T23:49:42.812Z,57.75
2019-03-30T23:51:47.129Z,57.95
2019-03-30T23:53:51.443Z,57.99
2019-03-30T23:55:55.756Z,58.07
2019-03-30T23:58:00.084Z,58.28
